Isles of Scilly, United Kingdom
Current Conditions -  °F | °C
As of 5:50 PM on Tuesday 21 Oct 2014 (Local Time) from EGHE Reporting Station
Few Clouds Few Clouds  
Wind Chill: 55°   Ceiling: Unl
Heat Index: 55°   Visibility: 6mi
Dew Point: 43°   Wind: 24mph
Humidity: 63%   Direction: 320°NW
Pressure: 30.27"   Gusts: NA
Location:  49.91°N, 6.31°W
Report Text: EGHE 211650Z 32021KT 9999 FEW024 13/06 Q1025
Loading
Personal Weather Stations






























Interactive Weather Map New forecast layout! Learn more

10-Day Weather Forecast

Advertisements
Track Severe Weather on mobile